createdAt,value
2022-10-15T00:01:12.680Z,11.47
2022-10-15T00:03:40.193Z,12.13
2022-10-15T00:06:07.495Z,12.60
2022-10-15T00:08:34.423Z,12.03
2022-10-15T00:11:06.616Z,12.23
2022-10-15T00:13:33.871Z,11.73
2022-10-15T00:16:00.562Z,12.10
2022-10-15T00:18:27.034Z,12.17
2022-10-15T00:20:53.487Z,12.33
2022-10-15T00:23:19.952Z,11.67
2022-10-15T00:25:46.363Z,12.77
2022-10-15T00:28:12.920Z,12.80
2022-10-15T00:30:39.398Z,12.23
2022-10-15T00:33:05.867Z,15.35
2022-10-15T00:35:32.648Z,12.47
2022-10-15T00:37:59.189Z,12.03
2022-10-15T00:40:26.087Z,11.70
2022-10-15T00:42:52.763Z,12.37
2022-10-15T00:45:19.280Z,11.87
2022-10-15T00:47:49.228Z,10.77
2022-10-15T00:50:25.229Z,12.00
2022-10-15T00:52:58.749Z,11.97
2022-10-15T00:55:28.521Z,12.57
2022-10-15T00:57:55.699Z,11.50
2022-10-15T01:00:22.117Z,11.90
2022-10-15T01:02:48.660Z,10.83
2022-10-15T01:05:17.071Z,11.27
2022-10-15T01:07:43.603Z,10.97
2022-10-15T01:10:10.970Z,11.43
2022-10-15T01:12:47.462Z,11.00
2022-10-15T01:15:20.977Z,9.87
2022-10-15T01:17:53.982Z,9.23
2022-10-15T01:20:47.954Z,9.83
2022-10-15T01:23:25.995Z,8.70
2022-10-15T01:26:11.940Z,9.50
2022-10-15T01:28:39.301Z,9.57
2022-10-15T01:31:22.948Z,10.20
2022-10-15T01:33:58.039Z,9.77
2022-10-15T01:36:24.528Z,10.37
2022-10-15T01:39:09.812Z,9.93
2022-10-15T01:41:44.361Z,10.70
2022-10-15T01:44:17.745Z,8.93
2022-10-15T01:47:10.551Z,9.30
2022-10-15T01:49:41.046Z,10.53
2022-10-15T01:52:10.639Z,9.43
2022-10-15T01:54:37.279Z,9.57
2022-10-15T01:57:04.382Z,10.23
2022-10-15T01:59:31.964Z,9.30
2022-10-15T02:01:58.876Z,9.00
2022-10-15T02:04:26.630Z,9.33
2022-10-15T02:06:59.466Z,9.67
2022-10-15T02:09:35.353Z,8.83
2022-10-15T02:12:20.994Z,9.77
2022-10-15T02:14:52.344Z,9.60
2022-10-15T02:17:22.497Z,9.73
2022-10-15T02:19:54.528Z,9.27
2022-10-15T02:22:41.297Z,9.50
2022-10-15T02:25:08.058Z,9.20
2022-10-15T02:27:35.406Z,9.50
2022-10-15T02:30:03.789Z,8.73
2022-10-15T02:32:30.960Z,9.47
2022-10-15T02:34:58.147Z,9.97
2022-10-15T02:37:26.364Z,8.57
2022-10-15T02:39:52.894Z,8.83
2022-10-15T02:42:19.783Z,7.90
2022-10-15T02:44:47.957Z,8.53
2022-10-15T02:47:14.525Z,9.03
2022-10-15T02:49:40.972Z,8.47
2022-10-15T02:52:07.458Z,8.60
2022-10-15T02:54:34.002Z,8.50
2022-10-15T02:57:00.709Z,8.87
2022-10-15T02:59:27.301Z,8.03
2022-10-15T03:01:55.177Z,8.47
2022-10-15T03:04:21.994Z,9.03
2022-10-15T03:06:48.536Z,8.23
2022-10-15T03:09:15.076Z,8.80
2022-10-15T03:11:41.602Z,7.77
2022-10-15T03:14:08.094Z,8.00
2022-10-15T03:16:34.709Z,8.53
2022-10-15T03:19:01.134Z,8.70
2022-10-15T03:21:30.932Z,9.37
2022-10-15T03:24:03.850Z,9.53
2022-10-15T03:26:30.326Z,9.87
2022-10-15T03:28:57.244Z,9.47
2022-10-15T03:31:42.730Z,8.63
2022-10-15T03:34:09.752Z,9.07
2022-10-15T03:36:36.416Z,9.53
2022-10-15T03:39:06.406Z,8.77
2022-10-15T03:41:32.919Z,9.40
2022-10-15T03:44:02.998Z,9.60
2022-10-15T03:46:31.061Z,9.47
2022-10-15T03:48:59.124Z,9.70
2022-10-15T03:51:27.971Z,9.37
2022-10-15T03:54:02.996Z,9.33
2022-10-15T03:56:29.880Z,9.07
2022-10-15T03:59:11.897Z,9.50
2022-10-15T04:01:38.622Z,9.70
2022-10-15T04:04:05.761Z,9.60
2022-10-15T04:06:34.421Z,8.67
2022-10-15T04:09:05.244Z,10.07
2022-10-15T04:11:31.887Z,8.63
2022-10-15T04:14:02.749Z,8.83
2022-10-15T04:16:32.153Z,9.43
2022-10-15T04:18:58.870Z,8.80
2022-10-15T04:21:26.078Z,8.50
2022-10-15T04:23:57.295Z,8.67
2022-10-15T04:26:29.868Z,9.10
2022-10-15T04:28:59.586Z,9.07
2022-10-15T04:31:27.776Z,9.47
2022-10-15T04:33:54.248Z,9.17
2022-10-15T04:36:20.805Z,9.87
2022-10-15T04:38:54.040Z,9.57
2022-10-15T04:41:27.133Z,9.53
2022-10-15T04:44:04.060Z,10.23
2022-10-15T04:46:31.921Z,10.60
2022-10-15T04:49:02.939Z,9.77
2022-10-15T04:51:29.378Z,9.53
2022-10-15T04:54:08.049Z,9.60
2022-10-15T04:56:38.128Z,10.97
2022-10-15T04:59:07.074Z,14.33
2022-10-15T05:01:37.790Z,12.40
2022-10-15T05:04:10.264Z,12.10
2022-10-15T05:06:36.932Z,13.03
2022-10-15T05:09:15.397Z,11.00
2022-10-15T05:11:47.270Z,12.27
2022-10-15T05:14:13.918Z,11.20
2022-10-15T05:16:40.352Z,11.60
2022-10-15T05:19:07.707Z,11.30
2022-10-15T05:21:37.245Z,11.27
2022-10-15T05:24:10.515Z,10.87
2022-10-15T05:26:56.791Z,10.40
2022-10-15T05:29:23.734Z,10.87
2022-10-15T05:31:50.852Z,10.17
2022-10-15T05:34:20.680Z,11.30
2022-10-15T05:36:54.673Z,10.33
2022-10-15T05:39:21.259Z,10.33
2022-10-15T05:41:47.788Z,10.67
2022-10-15T05:44:14.302Z,10.60
2022-10-15T05:46:40.812Z,10.33
2022-10-15T05:49:07.296Z,10.83
2022-10-15T05:51:46.230Z,10.53
2022-10-15T05:54:20.790Z,10.43
2022-10-15T05:56:47.229Z,10.33
2022-10-15T05:59:13.703Z,10.70
2022-10-15T06:01:40.257Z,10.20
2022-10-15T06:04:06.794Z,11.00
2022-10-15T06:06:34.702Z,11.67
2022-10-15T06:09:01.840Z,10.17
2022-10-15T06:11:28.511Z,11.03
2022-10-15T06:13:54.982Z,12.03
2022-10-15T06:16:23.881Z,11.57
2022-10-15T06:18:51.593Z,11.93
2022-10-15T06:21:17.996Z,11.80
2022-10-15T06:23:45.619Z,12.07
2022-10-15T06:26:12.403Z,11.10
2022-10-15T06:28:39.069Z,12.03
2022-10-15T06:31:06.268Z,11.93
2022-10-15T06:33:33.115Z,11.70
2022-10-15T06:36:03.611Z,11.73
2022-10-15T06:38:30.311Z,11.73
2022-10-15T06:40:56.838Z,11.63
2022-10-15T06:43:23.747Z,11.90
2022-10-15T06:45:50.351Z,10.63
2022-10-15T06:48:17.113Z,11.67
2022-10-15T06:50:43.923Z,12.57
2022-10-15T06:53:10.415Z,12.27
2022-10-15T06:55:38.234Z,11.90
2022-10-15T06:58:04.883Z,12.30
2022-10-15T07:00:31.396Z,12.43
2022-10-15T07:03:02.419Z,12.70
2022-10-15T07:05:28.823Z,11.70
2022-10-15T07:07:55.892Z,13.13
2022-10-15T07:10:24.726Z,12.50
2022-10-15T07:12:51.215Z,11.87
2022-10-15T07:15:18.239Z,11.80
2022-10-15T07:17:48.586Z,12.83
2022-10-15T07:20:16.299Z,12.67
2022-10-15T07:22:45.267Z,13.07
2022-10-15T07:25:11.858Z,13.20
2022-10-15T07:27:38.825Z,11.73
2022-10-15T07:30:05.983Z,11.30
2022-10-15T07:32:32.470Z,12.63
2022-10-15T07:34:59.008Z,12.17
2022-10-15T07:37:25.524Z,12.63
2022-10-15T07:39:51.949Z,12.57
2022-10-15T07:42:18.406Z,12.37
2022-10-15T07:44:44.868Z,12.63
2022-10-15T07:47:13.822Z,13.27
2022-10-15T07:49:40.267Z,13.47
2022-10-15T07:52:08.667Z,12.53
2022-10-15T07:54:35.465Z,12.80
2022-10-15T07:57:01.938Z,11.83
2022-10-15T07:59:28.595Z,13.67
2022-10-15T08:01:55.068Z,12.30
2022-10-15T08:04:21.772Z,11.80
2022-10-15T08:06:49.826Z,11.17
2022-10-15T08:09:16.555Z,11.77
2022-10-15T08:11:43.135Z,10.90
2022-10-15T08:14:11.910Z,11.77
2022-10-15T08:16:38.536Z,11.87
2022-10-15T08:19:05.047Z,12.00
2022-10-15T08:21:31.532Z,11.03
2022-10-15T08:23:57.935Z,11.57
2022-10-15T08:26:32.932Z,10.97
2022-10-15T08:28:59.387Z,10.33
2022-10-15T08:31:26.016Z,11.03
2022-10-15T08:33:52.714Z,11.80
2022-10-15T08:36:19.210Z,11.93
2022-10-15T08:38:45.727Z,11.10
2022-10-15T08:41:32.661Z,10.47
2022-10-15T08:43:59.437Z,9.53
2022-10-15T08:46:32.643Z,9.10
2022-10-15T08:48:59.894Z,9.23
2022-10-15T08:51:28.476Z,9.77
2022-10-15T08:53:57.145Z,8.80
2022-10-15T08:56:37.943Z,9.43
2022-10-15T08:59:20.935Z,8.50
2022-10-15T09:02:03.184Z,8.43
2022-10-15T09:04:32.360Z,8.73
2022-10-15T09:07:21.933Z,9.30
2022-10-15T09:09:51.555Z,9.00
2022-10-15T09:12:42.346Z,8.80
2022-10-15T09:15:16.956Z,8.80
2022-10-15T09:17:44.950Z,8.30
2022-10-15T09:20:17.996Z,8.60
2022-10-15T09:25:25.542Z,9.50
2022-10-15T09:27:54.590Z,8.20
2022-10-15T09:30:39.614Z,8.00
2022-10-15T09:33:05.995Z,7.47
2022-10-15T09:35:37.051Z,7.60
2022-10-15T09:38:25.023Z,6.90
2022-10-15T09:41:01.591Z,6.53
2022-10-15T09:43:31.906Z,6.03
2022-10-15T09:45:58.399Z,5.67
2022-10-15T09:48:28.449Z,5.73
2022-10-15T09:51:06.759Z,5.17
2022-10-15T09:53:39.328Z,4.93
2022-10-15T09:56:11.739Z,5.37
2022-10-15T09:58:49.867Z,4.33
2022-10-15T10:01:20.355Z,4.60
2022-10-15T10:03:51.439Z,3.83
2022-10-15T10:06:17.897Z,3.70
2022-10-15T10:11:19.190Z,3.50
2022-10-15T10:13:48.617Z,3.97
2022-10-15T10:16:16.928Z,3.47
2022-10-15T10:18:50.442Z,3.90
2022-10-15T10:21:26.537Z,3.47
2022-10-15T10:23:52.973Z,3.97
2022-10-15T10:26:20.163Z,3.30
2022-10-15T10:28:56.636Z,3.70
2022-10-15T10:31:28.472Z,3.83
2022-10-15T10:33:55.042Z,4.50
2022-10-15T10:36:26.997Z,3.63
2022-10-15T10:38:58.320Z,3.10
2022-10-15T10:41:44.732Z,3.50
2022-10-15T10:44:18.130Z,3.17
2022-10-15T10:46:44.667Z,2.90
2022-10-15T10:49:11.154Z,3.07
2022-10-15T10:51:48.319Z,2.87
2022-10-15T10:54:14.987Z,3.37
2022-10-15T10:56:43.386Z,3.20
2022-10-15T10:59:16.064Z,3.00
2022-10-15T11:01:42.885Z,2.70
2022-10-15T11:04:17.009Z,2.47
2022-10-15T11:06:45.849Z,2.70
2022-10-15T11:09:14.199Z,2.57
2022-10-15T11:11:43.653Z,2.30
2022-10-15T11:14:17.795Z,2.40
2022-10-15T11:16:49.151Z,2.30
2022-10-15T11:19:50.281Z,2.10
2022-10-15T11:24:48.941Z,2.20
2022-10-15T11:27:28.023Z,2.27
2022-10-15T11:30:08.595Z,2.07
2022-10-15T11:33:01.994Z,2.20
2022-10-15T11:35:51.703Z,2.33
2022-10-15T11:38:36.946Z,2.20
2022-10-15T11:41:09.187Z,2.30
2022-10-15T11:43:54.245Z,2.10
2022-10-15T11:46:25.427Z,2.37
2022-10-15T11:49:10.458Z,2.50
2022-10-15T11:51:55.457Z,2.30
2022-10-15T11:54:26.286Z,2.67
2022-10-15T11:56:53.755Z,2.63
2022-10-15T11:59:20.137Z,2.40
2022-10-15T12:01:49.944Z,2.70
2022-10-15T12:04:19.167Z,2.50
2022-10-15T12:06:49.610Z,2.50
2022-10-15T12:09:20.546Z,2.67
2022-10-15T12:11:53.395Z,2.47
2022-10-15T12:14:40.193Z,2.73
2022-10-15T12:17:20.506Z,2.30
2022-10-15T12:19:51.730Z,2.20
2022-10-15T12:22:39.447Z,2.40
2022-10-15T12:25:07.011Z,2.40
2022-10-15T12:27:35.390Z,2.60
2022-10-15T12:30:01.820Z,2.40
2022-10-15T12:32:28.334Z,2.30
2022-10-15T12:34:59.378Z,2.43
2022-10-15T12:37:27.796Z,2.30
2022-10-15T12:39:55.491Z,2.20
2022-10-15T12:42:38.598Z,1.80
2022-10-15T12:45:06.990Z,2.00
2022-10-15T12:47:47.279Z,2.13
2022-10-15T12:50:19.016Z,2.20
2022-10-15T12:52:59.221Z,2.20
2022-10-15T12:55:28.566Z,2.37
2022-10-15T12:57:59.695Z,2.00
2022-10-15T13:00:26.107Z,2.20
2022-10-15T13:02:53.597Z,2.20
2022-10-15T13:05:27.776Z,2.20
2022-10-15T13:07:56.027Z,2.97
2022-10-15T13:10:30.174Z,2.60
2022-10-15T13:12:58.973Z,2.23
2022-10-15T13:15:26.638Z,2.10
2022-10-15T13:17:55.284Z,2.27
2022-10-15T13:20:40.117Z,2.27
2022-10-15T13:23:18.906Z,5.53
2022-10-15T13:26:12.745Z,2.80
2022-10-15T13:28:41.880Z,2.80
2022-10-15T13:31:30.474Z,3.70
2022-10-15T13:34:16.515Z,3.77
2022-10-15T13:36:44.896Z,3.63
2022-10-15T13:39:22.836Z,3.07
2022-10-15T13:41:49.895Z,2.10
2022-10-15T13:44:23.091Z,2.90
2022-10-15T13:46:49.843Z,2.33
2022-10-15T13:49:17.714Z,2.40
2022-10-15T13:51:46.294Z,2.37
2022-10-15T13:54:16.360Z,3.03
2022-10-15T13:56:49.372Z,3.10
2022-10-15T13:59:18.238Z,3.23
2022-10-15T14:01:48.978Z,3.20
2022-10-15T14:04:17.136Z,3.13
2022-10-15T14:06:55.962Z,3.20
2022-10-15T14:09:27.026Z,3.00
2022-10-15T14:11:54.808Z,2.90
2022-10-15T14:14:29.451Z,3.13
2022-10-15T14:16:56.496Z,2.90
2022-10-15T14:19:29.842Z,2.97
2022-10-15T14:21:57.251Z,3.20
2022-10-15T14:24:27.907Z,2.90
2022-10-15T14:26:54.421Z,2.50
2022-10-15T14:29:27.808Z,2.70
2022-10-15T14:31:54.764Z,2.57
2022-10-15T14:34:35.121Z,2.13
2022-10-15T14:37:02.422Z,2.30
2022-10-15T14:39:33.815Z,2.17
2022-10-15T14:42:01.810Z,2.17
2022-10-15T14:44:45.109Z,2.10
2022-10-15T14:47:18.088Z,2.10
2022-10-15T14:49:44.630Z,1.93
2022-10-15T14:52:17.306Z,1.67
2022-10-15T14:55:06.298Z,1.90
2022-10-15T14:57:36.700Z,2.10
2022-10-15T15:00:05.695Z,2.43
2022-10-15T15:02:32.315Z,2.10
2022-10-15T15:05:24.974Z,1.97
2022-10-15T15:07:51.902Z,1.80
2022-10-15T15:10:18.818Z,2.37
2022-10-15T15:12:50.682Z,2.20
2022-10-15T15:15:17.990Z,1.90
2022-10-15T15:17:45.077Z,2.30
2022-10-15T15:20:11.746Z,2.00
2022-10-15T15:22:38.298Z,2.07
2022-10-15T15:25:14.180Z,2.30
2022-10-15T15:27:40.666Z,2.03
2022-10-15T15:30:08.552Z,2.23
2022-10-15T15:32:34.961Z,2.30
2022-10-15T15:35:01.432Z,2.20
2022-10-15T15:37:29.354Z,2.13
2022-10-15T15:39:57.573Z,2.13
2022-10-15T15:42:25.448Z,2.30
2022-10-15T15:44:52.226Z,2.00
2022-10-15T15:47:18.644Z,2.30
2022-10-15T15:49:45.085Z,2.03
2022-10-15T15:52:13.968Z,1.90
2022-10-15T15:54:40.726Z,1.90
2022-10-15T15:57:07.212Z,1.90
2022-10-15T15:59:33.648Z,2.00
2022-10-15T16:02:00.233Z,2.17
2022-10-15T16:04:26.771Z,1.97
2022-10-15T16:06:53.213Z,1.70
2022-10-15T16:09:20.388Z,1.70
2022-10-15T16:11:46.822Z,2.43
2022-10-15T16:14:13.362Z,2.00
2022-10-15T16:16:40.055Z,1.70
2022-10-15T16:19:06.574Z,2.10
2022-10-15T16:21:33.169Z,2.40
2022-10-15T16:26:27.519Z,2.17
2022-10-15T16:28:54.106Z,2.20
2022-10-15T16:31:24.190Z,2.20
2022-10-15T16:33:54.207Z,2.40
2022-10-15T16:36:21.012Z,2.57
2022-10-15T16:38:47.717Z,2.30
2022-10-15T16:41:14.823Z,2.30
2022-10-15T16:43:41.409Z,2.53
2022-10-15T16:46:07.939Z,4.20
2022-10-15T16:48:34.384Z,4.00
2022-10-15T16:51:07.702Z,3.60
2022-10-15T16:53:35.548Z,3.57
2022-10-15T16:56:06.226Z,3.37
2022-10-15T16:58:32.778Z,2.87
2022-10-15T17:01:03.829Z,3.07
2022-10-15T17:03:30.674Z,3.40
2022-10-15T17:05:58.079Z,3.17
2022-10-15T17:08:26.872Z,3.60
2022-10-15T17:10:54.236Z,3.10
2022-10-15T17:13:20.671Z,3.43
2022-10-15T17:15:47.667Z,3.10
2022-10-15T17:18:14.727Z,3.30
2022-10-15T17:20:47.617Z,2.80
2022-10-15T17:23:14.874Z,3.20
2022-10-15T17:25:41.719Z,3.30
2022-10-15T17:28:12.582Z,3.20
2022-10-15T17:30:41.127Z,3.30
2022-10-15T17:33:07.582Z,2.93
2022-10-15T17:35:37.068Z,2.83
2022-10-15T17:38:04.312Z,2.90
2022-10-15T17:40:30.766Z,3.50
2022-10-15T17:42:57.368Z,4.10
2022-10-15T17:45:24.114Z,4.60
2022-10-15T17:47:50.795Z,5.10
2022-10-15T17:50:17.398Z,3.70
2022-10-15T17:52:44.048Z,3.80
2022-10-15T17:55:10.693Z,6.23
2022-10-15T17:57:37.178Z,5.27
2022-10-15T18:00:04.288Z,5.47
2022-10-15T18:02:38.841Z,4.63
2022-10-15T18:05:06.328Z,4.60
2022-10-15T18:07:33.720Z,5.43
2022-10-15T18:10:01.610Z,6.13
2022-10-15T18:12:28.101Z,8.10
2022-10-15T18:14:54.598Z,6.90
2022-10-15T18:17:24.542Z,8.73
2022-10-15T18:19:51.246Z,9.50
2022-10-15T18:22:17.763Z,9.77
2022-10-15T18:24:44.304Z,10.23
2022-10-15T18:27:10.923Z,10.00
2022-10-15T18:29:37.380Z,8.43
2022-10-15T18:32:04.187Z,7.87
2022-10-15T18:34:33.305Z,7.47
2022-10-15T18:36:59.842Z,6.83
2022-10-15T18:39:26.777Z,8.40
2022-10-15T18:41:53.218Z,8.03
2022-10-15T18:44:21.415Z,8.53
2022-10-15T18:46:48.039Z,7.90
2022-10-15T18:49:15.763Z,7.90
2022-10-15T18:51:42.283Z,14.57
2022-10-15T18:54:09.000Z,12.93
2022-10-15T18:56:35.524Z,10.38
2022-10-15T18:59:01.994Z,10.07
2022-10-15T19:01:30.522Z,24.47
2022-10-15T19:03:58.031Z,18.43
2022-10-15T19:06:25.902Z,13.50
2022-10-15T19:08:52.523Z,15.90
2022-10-15T19:11:19.481Z,13.47
2022-10-15T19:13:45.997Z,15.93
2022-10-15T19:16:12.445Z,23.20
2022-10-15T19:18:39.913Z,21.60
2022-10-15T19:21:06.449Z,17.77
2022-10-15T19:23:33.429Z,31.83
2022-10-15T19:26:00.469Z,24.73
2022-10-15T19:28:27.323Z,17.97
2022-10-15T19:30:54.909Z,19.20
2022-10-15T19:33:21.438Z,27.20
2022-10-15T19:35:48.003Z,20.10
2022-10-15T19:38:14.442Z,15.63
2022-10-15T19:40:41.615Z,15.53
2022-10-15T19:43:10.220Z,18.07
2022-10-15T19:45:42.965Z,19.63
2022-10-15T19:48:10.101Z,16.90
2022-10-15T19:50:38.002Z,22.03
2022-10-15T19:53:09.376Z,20.43
2022-10-15T19:55:36.064Z,18.87
2022-10-15T19:58:02.484Z,17.87
2022-10-15T20:00:29.219Z,15.27
2022-10-15T20:02:55.725Z,17.47
2022-10-15T20:05:22.160Z,16.50
2022-10-15T20:07:48.736Z,21.10
2022-10-15T20:10:15.286Z,17.13
2022-10-15T20:12:42.051Z,17.17
2022-10-15T20:15:08.809Z,17.80
2022-10-15T20:17:35.470Z,13.67
2022-10-15T20:20:01.955Z,13.80
2022-10-15T20:22:28.750Z,10.77
2022-10-15T20:24:55.457Z,11.00
2022-10-15T20:27:21.915Z,10.40
2022-10-15T20:29:48.340Z,11.47
2022-10-15T20:32:30.507Z,12.13
2022-10-15T20:35:01.074Z,11.23
2022-10-15T20:37:27.590Z,11.10
2022-10-15T20:39:54.095Z,11.90
2022-10-15T20:42:20.770Z,11.07
2022-10-15T20:44:47.171Z,10.50
2022-10-15T20:47:14.625Z,10.80
2022-10-15T20:49:43.134Z,10.70
2022-10-15T20:52:09.688Z,12.23
2022-10-15T20:54:36.646Z,12.30
2022-10-15T20:57:03.286Z,11.40
2022-10-15T20:59:30.506Z,11.33
2022-10-15T21:01:57.155Z,13.37
2022-10-15T21:04:23.637Z,10.87
2022-10-15T21:06:50.099Z,10.90
2022-10-15T21:09:16.531Z,11.57
2022-10-15T21:11:44.363Z,11.27
2022-10-15T21:14:11.422Z,11.00
2022-10-15T21:16:38.713Z,10.70
2022-10-15T21:19:05.182Z,12.90
2022-10-15T21:21:32.644Z,12.10
2022-10-15T21:23:59.400Z,14.93
2022-10-15T21:26:25.977Z,11.97
2022-10-15T21:28:56.429Z,13.07
2022-10-15T21:31:23.573Z,13.97
2022-10-15T21:33:50.300Z,12.23
2022-10-15T21:36:22.907Z,11.87
2022-10-15T21:38:52.073Z,10.93
2022-10-15T21:41:18.501Z,12.60
2022-10-15T21:43:44.989Z,13.43
2022-10-15T21:46:12.237Z,13.70
2022-10-15T21:48:38.850Z,12.87
2022-10-15T21:51:08.278Z,12.53
2022-10-15T21:53:35.947Z,12.53
2022-10-15T21:56:05.612Z,13.30
2022-10-15T21:58:32.528Z,13.33
2022-10-15T22:01:07.048Z,12.90
2022-10-15T22:03:33.504Z,12.47
2022-10-15T22:05:59.911Z,11.87
2022-10-15T22:08:27.876Z,11.80
2022-10-15T22:10:54.245Z,11.80
2022-10-15T22:13:20.657Z,12.93
2022-10-15T22:15:47.048Z,12.80
2022-10-15T22:18:13.440Z,12.63
2022-10-15T22:23:11.179Z,12.57
2022-10-15T22:25:37.591Z,13.23
2022-10-15T22:28:04.331Z,12.60
2022-10-15T22:30:30.827Z,12.53
2022-10-15T22:32:57.333Z,13.20
2022-10-15T22:35:23.707Z,13.50
2022-10-15T22:37:50.219Z,14.03
2022-10-15T22:40:16.740Z,13.30
2022-10-15T22:42:43.159Z,14.50
2022-10-15T22:45:09.677Z,13.53
2022-10-15T22:47:36.210Z,13.90
2022-10-15T22:52:34.347Z,13.43
2022-10-15T22:55:00.829Z,13.07
2022-10-15T22:57:27.286Z,12.87
2022-10-15T22:59:57.169Z,13.83
2022-10-15T23:02:26.078Z,14.87
2022-10-15T23:04:52.686Z,13.30
2022-10-15T23:07:19.134Z,13.33
2022-10-15T23:09:45.589Z,12.53
2022-10-15T23:12:12.029Z,13.57
2022-10-15T23:14:38.583Z,12.57
2022-10-15T23:17:05.071Z,13.20
2022-10-15T23:19:32.293Z,12.70
2022-10-15T23:22:01.233Z,13.20
2022-10-15T23:24:28.987Z,14.03
2022-10-15T23:26:55.541Z,12.97
2022-10-15T23:29:23.770Z,12.83
2022-10-15T23:31:50.932Z,12.23
2022-10-15T23:34:19.178Z,12.40
2022-10-15T23:36:45.954Z,11.93
2022-10-15T23:39:14.476Z,12.00
2022-10-15T23:41:40.976Z,12.43
2022-10-15T23:44:07.422Z,12.03
2022-10-15T23:46:33.845Z,12.37
2022-10-15T23:49:00.258Z,12.00
2022-10-15T23:51:28.571Z,11.23
2022-10-15T23:53:55.738Z,11.80
2022-10-15T23:56:22.546Z,13.18
2022-10-15T23:58:52.712Z,11.03
